This is the latest recevied weather packets stored in our database for station/object KB3AWQ. If no packets are shown the sender has not sent any weather packets the latest 10 day(s).
| Time | Temp. | Humidity | Pressure | Rain* | Wind** | Luminosity | Snow |
|---|---|---|---|---|---|---|---|
| 1787851766 | 28.33° C | 72% | 1014.7 hPa | 0 mm | - | 530 W/m² | - |
| 1787851468 | 28.89° C | 71% | 1014.8 hPa | 0 mm | - | 354 W/m² | - |
| 1787851166 | 28.33° C | 73% | 1014.7 hPa | 0 mm | - | 867 W/m² | - |
| 1787850867 | 28.33° C | 73% | 1014.7 hPa | 0 mm | - | 855 W/m² | - |
| 1787850567 | 28.33° C | 73% | 1014.7 hPa | 0 mm | - | 563 W/m² | - |
| 1787850266 | 28.89° C | 71% | 1014.7 hPa | 0 mm | - | 746 W/m² | - |
| 1787849967 | 29.44° C | 72% | 1014.7 hPa | 0 mm | - | 949 W/m² | - |
| 1787849667 | 29.44° C | 70% | 1014.8 hPa | 0 mm | - | 764 W/m² | - |
| 1787849366 | 28.89° C | 72% | 1014.8 hPa | 0 mm | - | 809 W/m² | - |
| 1787849067 | 28.33° C | 72% | 1014.8 hPa | 0 mm | - | 858 W/m² | - |
| 1787848767 | 28.33° C | 74% | 1014.8 hPa | 0 mm | - | 819 W/m² | - |
| 1787848466 | 28.33° C | 74% | 1014.9 hPa | 0 mm | - | 848 W/m² | - |
| 1787848166 | 27.78° C | 76% | 1014.9 hPa | 0 mm | - | 858 W/m² | - |
| 1787847868 | 27.78° C | 76% | 1014.9 hPa | 0 mm | - | 835 W/m² | - |
| 1787847566 | 27.78° C | 77% | 1015 hPa | 0 mm | - | 842 W/m² | - |
| 1787847266 | 27.22° C | 78% | 1015.1 hPa | 0 mm | - | 864 W/m² | - |
| 1787846967 | 26.67° C | 80% | 1015.1 hPa | 0 mm | - | 728 W/m² | - |
| 1787846667 | 26.11° C | 81% | 1015.1 hPa | 0 mm | - | 841 W/m² | - |
| 1787846366 | 26.11° C | 82% | 1015.2 hPa | 0 mm | - | 385 W/m² | - |
| 1787846067 | 26.67° C | 79% | 1015.3 hPa | 0 mm | - | 299 W/m² | - |
| 1787845766 | 26.67° C | 80% | 1015.4 hPa | 0 mm | - | 266 W/m² | - |
| 1787845467 | 26.11° C | 81% | 1015.4 hPa | 0 mm | - | 252 W/m² | - |
| 1787845167 | 26.11° C | 81% | 1015.4 hPa | 0 mm | - | 277 W/m² | - |
| 1787844866 | 25.56° C | 81% | 1015.4 hPa | 0 mm | - | 346 W/m² | - |
| 1787844568 | 25.56° C | 80% | 1015.4 hPa | 0 mm | - | 421 W/m² | - |
* Rain latest hour (hover to see other rain measurements)
** Current wind speed in m/s (hover to see current wind gust speed)